CheckWX is a tool to help pilots better visualize weather data.  It is not intended as a substitute for an official pre-flight weather briefing.

05:22:35 UTC

KMSO TAF
Missoula International Airport
Missoula, Montana, USA
KMSO 240225Z 2402/2424 VRB04KT P6SM VCSH BKN070 FM240500 11007KT P6SM VCSH OVC040

Feb-24@
02:00 UTC

Feb-24 @ 02:00 UTC

Feb-24@
05:00 UTC

Feb-24 @ 05:00 UTC

KMSO 240225Z 2402/2424 VRB04KT P6SM VCSH BKN070

Expired

Wind
  • Variable at 4 KTS
Cloud Levels
  • Broken at 7,000' AGL

Feb-24@
05:00 UTC

Feb-24 @ 05:00 UTC

Feb-25@
00:00 UTC

Feb-25 @ 00:00 UTC

FM240500 11007KT P6SM VCSH OVC040

From

From Standard forecast or significant change

Wind
  • 110° at 7 KTS
Cloud Levels
  • Overcast at 4,000' AGL